Terminal Aerodrome Forecast
Issued by NWS Glasgow, MT

Home | Current Version | Previous Version | Text Only | Print | Product List | Glossary On
Versions: 1 2 3 4 5 6 7 8 9 10 11 12 13 14 15 16 17
302
FTUS45 KGGW 091738
TAFGGW
TAF
KGGW 091738Z 0918/1018 09008KT P6SM SCT025
     FM092100 09007KT P6SM BKN030
     FM100400 10010KT P6SM OVC015
     FM101400 09013KT P6SM -SN OVC015=

USA.gov is the U.S. government's official web portal to all federal, state and local government web resources and services.